Time;durP1;ratioP1;P1;durP2;ratioP2;P2;SDS_P1;SDS_P2;PMS_P1;PMS_P2;Temp;Humidity;BMP_temperature;BMP_pressure;BME280_temperature;BME280_humidity;BME280_pressure;Samples;Min_cycle;Max_cycle;Signal;HPM_P1;HPM_P2
2022/10/10 00:00:40;;;;;;;23.83;4.03;;;7.30;99.90;;;;;;5033140;28;20021;-69
2022/10/10 00:03:06;;;;;;;18.33;4.35;;;7.40;99.90;;;;;;5037995;28;20492;-69
2022/10/10 00:05:32;;;;;;;19.98;4.95;;;7.40;99.90;;;;;;5052973;28;20056;-70
2022/10/10 00:07:57;;;;;;;8.20;3.70;;;7.40;99.90;;;;;;5052528;28;20445;-69
2022/10/10 00:10:23;;;;;;;15.40;3.75;;;7.40;99.90;;;;;;5053090;28;20025;-69
2022/10/10 00:12:48;;;;;;;15.82;3.42;;;7.40;99.90;;;;;;5053268;28;20374;-69
2022/10/10 00:15:15;;;;;;;11.48;3.78;;;7.40;99.90;;;;;;5052785;28;20021;-69
2022/10/10 00:17:42;;;;;;;16.52;4.47;;;7.40;99.90;;;;;;5053467;28;20028;-69
2022/10/10 00:20:12;;;;;;;14.52;4.82;;;7.40;99.90;;;;;;5052270;28;20025;-69
2022/10/10 00:22:38;;;;;;;13.93;4.50;;;7.50;99.90;;;;;;5052853;28;20033;-69
2022/10/10 00:25:06;;;;;;;17.77;4.50;;;7.40;99.90;;;;;;5053359;28;20021;-69
2022/10/10 00:27:31;;;;;;;10.73;4.07;;;7.40;99.90;;;;;;5056589;28;20029;-69
2022/10/10 00:29:57;;;;;;;11.65;4.38;;;7.40;99.90;;;;;;5056652;28;20021;-69
2022/10/10 00:32:23;;;;;;;19.48;4.40;;;7.40;99.90;;;;;;5056220;28;20481;-69
2022/10/10 00:34:49;;;;;;;17.88;4.45;;;7.40;99.90;;;;;;5056491;28;20066;-69
2022/10/10 00:37:14;;;;;;;13.80;4.07;;;7.30;99.90;;;;;;5056604;28;20029;-69
2022/10/10 00:39:40;;;;;;;13.55;4.05;;;7.30;99.90;;;;;;5056383;28;20399;-69
2022/10/10 00:42:05;;;;;;;14.57;4.40;;;7.40;99.90;;;;;;5056239;28;20473;-69
2022/10/10 00:44:31;;;;;;;10.15;3.58;;;7.40;99.90;;;;;;5056611;28;20029;-69
2022/10/10 00:46:57;;;;;;;19.30;4.78;;;7.30;99.90;;;;;;5055725;28;20029;-69
2022/10/10 00:49:26;;;;;;;14.60;3.92;;;7.40;99.90;;;;;;5056467;28;20036;-69
2022/10/10 00:51:56;;;;;;;20.38;5.15;;;7.30;99.90;;;;;;5056987;28;20356;-69
2022/10/10 00:54:23;;;;;;;13.80;4.75;;;7.30;99.90;;;;;;5056437;28;20488;-69
2022/10/10 00:57:01;;;;;;;23.60;3.88;;;7.40;99.90;;;;;;5055595;28;20039;-69
2022/10/10 00:59:31;;;;;;;14.90;4.68;;;7.30;99.90;;;;;;5056372;28;20025;-69
2022/10/10 01:01:56;;;;;;;14.07;4.05;;;7.30;99.90;;;;;;5056221;28;20036;-69
2022/10/10 01:04:32;;;;;;;17.85;4.53;;;7.30;99.90;;;;;;5055409;28;20029;-69
2022/10/10 01:06:58;;;;;;;23.23;4.32;;;7.30;99.90;;;;;;5055798;28;20025;-68
2022/10/10 01:09:25;;;;;;;12.27;4.32;;;7.30;99.90;;;;;;5056131;28;20086;-68
2022/10/10 01:11:59;;;;;;;24.58;4.13;;;7.30;99.90;;;;;;5055378;28;20532;-68
2022/10/10 01:14:27;;;;;;;16.23;4.07;;;7.20;99.90;;;;;;5055819;28;20044;-68
2022/10/10 01:17:25;;;;;;;14.70;4.15;;;7.30;99.90;;;;;;5055698;28;20032;-68
2022/10/10 01:20:01;;;;;;;14.70;4.43;;;7.30;99.90;;;;;;5051552;28;20104;-68
2022/10/10 01:22:47;;;;;;;14.75;5.07;;;7.30;99.90;;;;;;5055699;28;20043;-68
2022/10/10 01:25:45;;;;;;;21.92;4.28;;;7.30;99.90;;;;;;5055277;28;20025;-68
2022/10/10 01:28:45;;;;;;;30.98;4.70;;;7.20;99.90;;;;;;5056100;28;20465;-68
2022/10/10 01:31:13;;;;;;;18.65;4.28;;;7.10;99.90;;;;;;5055480;28;20496;-68
2022/10/10 01:34:17;;;;;;;12.13;4.50;;;7.10;99.90;;;;;;5055459;28;20100;-68
2022/10/10 01:36:54;;;;;;;9.48;3.05;;;7.10;99.90;;;;;;5054293;28;20075;-68
2022/10/10 01:39:52;;;;;;;15.02;4.68;;;7.10;99.90;;;;;;5055273;28;20554;-68
2022/10/10 01:42:21;;;;;;;10.88;3.85;;;7.10;99.90;;;;;;5055150;28;20548;-69
2022/10/10 01:44:47;;;;;;;12.35;3.70;;;7.10;99.90;;;;;;5054685;28;20025;-69
2022/10/10 01:47:13;;;;;;;13.30;3.95;;;7.10;99.90;;;;;;5054961;28;20040;-69
2022/10/10 01:49:40;;;;;;;17.48;3.90;;;7.10;99.90;;;;;;5055010;28;20033;-69
2022/10/10 01:52:24;;;;;;;20.48;4.55;;;7.10;99.90;;;;;;5055369;28;20096;-69
2022/10/10 01:55:01;;;;;;;17.23;4.45;;;7.10;99.90;;;;;;5054738;28;20190;-69
2022/10/10 01:57:59;;;;;;;32.17;4.43;;;7.10;99.90;;;;;;5054930;28;20035;-69
2022/10/10 02:00:25;;;;;;;13.73;3.47;;;7.00;99.90;;;;;;5049498;28;20032;-69
2022/10/10 02:03:18;;;;;;;16.65;4.30;;;7.00;99.90;;;;;;5055067;28;20017;-69
2022/10/10 02:06:01;;;;;;;21.00;3.92;;;6.90;99.90;;;;;;5054288;28;20025;-69
2022/10/10 02:08:59;;;;;;;10.00;3.17;;;6.90;99.90;;;;;;5055100;28;20100;-69
2022/10/10 02:11:27;;;;;;;15.85;4.13;;;6.90;99.90;;;;;;5039052;28;20029;-69
2022/10/10 02:14:02;;;;;;;28.27;6.22;;;6.80;99.90;;;;;;5054112;28;20100;-68
2022/10/10 02:16:35;;;;;;;13.00;3.92;;;6.80;99.90;;;;;;5054769;28;20469;-68
2022/10/10 02:19:04;;;;;;;15.20;4.03;;;6.80;99.90;;;;;;5054709;28;20104;-68
2022/10/10 02:21:31;;;;;;;15.40;4.22;;;6.80;99.90;;;;;;5054407;28;20086;-68
2022/10/10 02:24:02;;;;;;;7.80;3.13;;;6.80;99.90;;;;;;5054033;28;20029;-68
2022/10/10 02:26:30;;;;;;;11.43;3.83;;;6.80;99.90;;;;;;5054275;28;20025;-68
2022/10/10 02:29:00;;;;;;;15.50;4.78;;;6.70;99.90;;;;;;5054370;28;20036;-68
2022/10/10 02:32:06;;;;;;;9.60;4.45;;;6.70;99.90;;;;;;5054090;28;20031;-68
2022/10/10 02:34:36;;;;;;;18.20;3.65;;;6.80;99.90;;;;;;5053268;28;20455;-68
2022/10/10 02:37:09;;;;;;;15.73;3.97;;;6.80;99.90;;;;;;5053663;28;20472;-68
2022/10/10 02:39:41;;;;;;;17.60;4.13;;;6.80;99.90;;;;;;5054493;28;20075;-68
2022/10/10 02:42:08;;;;;;;18.55;4.47;;;6.80;99.90;;;;;;5054506;28;20469;-68
2022/10/10 02:44:35;;;;;;;14.75;4.63;;;6.80;99.90;;;;;;5054042;28;20079;-68
2022/10/10 02:47:00;;;;;;;21.17;3.72;;;6.80;99.90;;;;;;5053972;28;20132;-68
2022/10/10 02:49:31;;;;;;;11.38;3.88;;;6.80;99.90;;;;;;5053007;28;20056;-68
2022/10/10 02:51:57;;;;;;;22.45;4.10;;;6.70;99.90;;;;;;5054076;28;20021;-68
2022/10/10 02:54:23;;;;;;;8.93;2.97;;;6.70;99.90;;;;;;5053976;28;20461;-68
2022/10/10 02:56:49;;;;;;;13.48;4.05;;;6.70;99.90;;;;;;5053845;28;20428;-68
2022/10/10 02:59:14;;;;;;;15.45;3.85;;;6.70;99.90;;;;;;5053847;28;20025;-68
2022/10/10 03:01:40;;;;;;;11.52;4.32;;;6.70;99.90;;;;;;5053889;28;20025;-68
2022/10/10 03:04:05;;;;;;;26.35;4.45;;;6.70;99.90;;;;;;5053183;28;20036;-68
2022/10/10 03:06:31;;;;;;;22.75;4.32;;;6.70;99.90;;;;;;5053773;28;20155;-68
2022/10/10 03:08:56;;;;;;;11.93;4.47;;;6.70;99.90;;;;;;5053601;28;20017;-67
2022/10/10 03:11:22;;;;;;;19.27;3.78;;;6.60;99.90;;;;;;5053783;28;20020;-68
2022/10/10 03:13:48;;;;;;;15.90;4.20;;;6.60;99.90;;;;;;5054077;28;20529;-67
2022/10/10 03:16:13;;;;;;;13.32;4.13;;;6.70;99.90;;;;;;5053524;28;20099;-67
2022/10/10 03:18:38;;;;;;;14.82;4.40;;;6.70;99.90;;;;;;5052984;28;20033;-68
2022/10/10 03:21:04;;;;;;;10.75;4.35;;;6.70;99.90;;;;;;5053069;28;20094;-68
2022/10/10 03:23:31;;;;;;;16.90;4.95;;;6.60;99.90;;;;;;5053442;28;20091;-69
2022/10/10 03:25:57;;;;;;;12.15;4.03;;;6.70;99.90;;;;;;5053354;28;20025;-69
2022/10/10 03:28:22;;;;;;;14.35;4.57;;;6.60;99.90;;;;;;5052930;28;20432;-69
2022/10/10 03:30:48;;;;;;;16.27;4.00;;;6.60;99.90;;;;;;5053220;28;20017;-69
2022/10/10 03:33:14;;;;;;;14.02;4.40;;;6.70;99.90;;;;;;5053308;28;20053;-69
2022/10/10 03:35:39;;;;;;;18.75;3.63;;;6.60;99.90;;;;;;5053468;28;20082;-69
2022/10/10 03:38:06;;;;;;;10.57;4.20;;;6.60;99.90;;;;;;5053399;28;20358;-69
2022/10/10 03:40:32;;;;;;;21.20;4.97;;;6.50;99.90;;;;;;5053338;28;20385;-69
2022/10/10 03:42:58;;;;;;;16.90;4.57;;;6.60;99.90;;;;;;5052909;28;20024;-69
2022/10/10 03:45:24;;;;;;;14.68;3.75;;;6.60;99.90;;;;;;5053133;28;20091;-68
2022/10/10 03:47:50;;;;;;;15.10;4.13;;;6.60;99.90;;;;;;5053251;28;20067;-68
2022/10/10 03:50:16;;;;;;;14.50;3.90;;;6.60;99.90;;;;;;5092860;22;20021;-70
2022/10/10 03:52:41;;;;;;;21.50;4.72;;;6.60;99.90;;;;;;5053589;28;20029;-70
2022/10/10 03:55:07;;;;;;;8.73;4.22;;;6.50;99.90;;;;;;5052940;28;20036;-70
2022/10/10 03:57:34;;;;;;;7.13;3.95;;;6.40;99.90;;;;;;5053552;28;20017;-70
2022/10/10 03:59:59;;;;;;;14.20;5.05;;;6.40;99.90;;;;;;5054176;28;20388;-70
2022/10/10 04:02:25;;;;;;;9.30;4.45;;;6.40;99.90;;;;;;5056747;28;20021;-70
2022/10/10 04:04:50;;;;;;;11.95;3.53;;;6.30;99.90;;;;;;5058113;28;20104;-70
2022/10/10 04:07:16;;;;;;;17.50;4.20;;;6.30;99.90;;;;;;5057180;28;20439;-70
2022/10/10 04:09:41;;;;;;;13.35;4.13;;;6.20;99.90;;;;;;5057690;28;20021;-70
2022/10/10 04:12:07;;;;;;;12.15;4.38;;;6.20;99.90;;;;;;5057246;28;20475;-70
2022/10/10 04:14:32;;;;;;;11.10;4.28;;;6.30;99.90;;;;;;5057268;28;20082;-70
2022/10/10 04:16:58;;;;;;;15.10;5.45;;;6.20;99.90;;;;;;5056485;28;20082;-70
2022/10/10 04:19:23;;;;;;;10.45;3.90;;;6.10;99.90;;;;;;5056970;28;20484;-70
2022/10/10 04:21:49;;;;;;;9.20;3.60;;;6.10;99.90;;;;;;5057464;28;20039;-70
2022/10/10 04:24:15;;;;;;;15.90;4.28;;;6.00;99.90;;;;;;5056267;28;20496;-70
2022/10/10 04:26:40;;;;;;;16.42;4.07;;;6.00;99.90;;;;;;5056923;28;20043;-70
2022/10/10 04:29:07;;;;;;;15.18;4.22;;;6.00;99.90;;;;;;5056917;28;20017;-70
2022/10/10 04:31:32;;;;;;;24.08;5.68;;;6.00;99.90;;;;;;5056888;28;20057;-70
2022/10/10 04:33:58;;;;;;;13.50;4.00;;;6.00;99.90;;;;;;5056325;28;20134;-70
2022/10/10 04:36:24;;;;;;;10.25;4.00;;;5.90;99.90;;;;;;5056516;28;20104;-70
2022/10/10 04:38:49;;;;;;;11.38;3.90;;;5.90;99.90;;;;;;5055354;28;20477;-70
2022/10/10 04:41:15;;;;;;;15.65;4.40;;;5.90;99.90;;;;;;5056611;28;20097;-70
2022/10/10 04:43:40;;;;;;;18.00;5.05;;;5.90;99.90;;;;;;5055984;28;20049;-70
2022/10/10 04:46:06;;;;;;;18.38;5.10;;;5.90;99.90;;;;;;5056377;28;20032;-70
2022/10/10 04:48:31;;;;;;;9.95;3.92;;;5.90;99.90;;;;;;5056694;28;20021;-70
2022/10/10 04:50:57;;;;;;;15.73;4.93;;;5.90;99.90;;;;;;5055601;28;20032;-70
2022/10/10 04:53:24;;;;;;;12.80;4.70;;;5.90;99.90;;;;;;5055000;28;20024;-70
2022/10/10 04:55:50;;;;;;;12.05;4.28;;;5.90;99.90;;;;;;5056470;28;20028;-70
2022/10/10 04:58:16;;;;;;;11.93;4.18;;;5.90;99.90;;;;;;5053224;28;20056;-70
2022/10/10 05:00:41;;;;;;;17.65;4.63;;;5.80;99.90;;;;;;5036365;28;20026;-70
2022/10/10 05:03:09;;;;;;;14.52;5.00;;;5.80;99.90;;;;;;5036284;28;20064;-70
2022/10/10 05:05:34;;;;;;;14.23;4.00;;;5.80;99.90;;;;;;5035607;28;20033;-70
2022/10/10 05:08:00;;;;;;;22.70;4.30;;;5.70;99.90;;;;;;5055678;28;20021;-70
2022/10/10 05:10:25;;;;;;;9.20;4.20;;;5.70;99.90;;;;;;5055944;28;20025;-70
2022/10/10 05:12:51;;;;;;;8.98;3.90;;;5.60;99.90;;;;;;5054780;28;20017;-70
2022/10/10 05:15:18;;;;;;;14.73;4.60;;;5.60;99.90;;;;;;5055533;28;20028;-70
2022/10/10 05:17:43;;;;;;;12.50;4.60;;;5.60;99.90;;;;;;5055912;28;20021;-70
2022/10/10 05:20:10;;;;;;;14.95;4.60;;;5.50;99.90;;;;;;5056650;28;20028;-70
2022/10/10 05:22:35;;;;;;;23.88;4.72;;;5.50;99.90;;;;;;5057885;28;20461;-70
2022/10/10 05:25:01;;;;;;;19.15;5.25;;;5.50;99.90;;;;;;5056741;28;20037;-70
2022/10/10 05:27:27;;;;;;;11.02;4.68;;;5.50;99.90;;;;;;5055578;28;20072;-70
2022/10/10 05:29:54;;;;;;;16.60;4.75;;;5.50;99.90;;;;;;5053848;28;20461;-70
2022/10/10 05:32:20;;;;;;;14.98;5.18;;;5.50;99.90;;;;;;5055850;28;20017;-70
2022/10/10 05:34:45;;;;;;;14.98;5.35;;;5.50;99.90;;;;;;5055519;28;20028;-70
2022/10/10 05:37:11;;;;;;;15.05;5.40;;;5.50;99.90;;;;;;5055701;28;20414;-70
2022/10/10 05:39:36;;;;;;;13.57;4.47;;;5.60;99.90;;;;;;5055491;28;20056;-70
2022/10/10 05:42:02;;;;;;;18.08;4.80;;;5.70;99.90;;;;;;5055282;28;20025;-70
2022/10/10 05:44:28;;;;;;;24.30;6.00;;;5.60;99.90;;;;;;5053672;28;20021;-70
2022/10/10 05:46:53;;;;;;;21.05;4.90;;;5.60;99.90;;;;;;5055510;28;20108;-70
2022/10/10 05:49:19;;;;;;;17.38;5.07;;;5.60;99.90;;;;;;5055522;28;20021;-70
2022/10/10 05:51:44;;;;;;;14.52;5.63;;;5.60;99.90;;;;;;5055127;28;20033;-70
2022/10/10 05:54:10;;;;;;;13.73;5.15;;;5.60;99.90;;;;;;5054689;28;20029;-70
2022/10/10 05:56:36;;;;;;;18.45;5.43;;;5.60;99.90;;;;;;5055133;28;20062;-70
2022/10/10 05:59:01;;;;;;;16.02;5.22;;;5.60;99.90;;;;;;5055190;28;20044;-70
2022/10/10 06:01:27;;;;;;;13.05;4.72;;;5.60;99.90;;;;;;5055065;28;20049;-70
2022/10/10 06:03:54;;;;;;;15.50;5.40;;;5.60;99.90;;;;;;5054527;28;20025;-70
2022/10/10 06:06:21;;;;;;;14.15;5.03;;;5.60;99.90;;;;;;5055147;28;20020;-70
2022/10/10 06:08:47;;;;;;;16.88;4.90;;;5.70;99.90;;;;;;5054897;28;20076;-70
2022/10/10 06:11:14;;;;;;;12.55;4.93;;;5.70;99.90;;;;;;5054700;28;20060;-70
2022/10/10 06:13:40;;;;;;;19.15;5.00;;;5.70;99.90;;;;;;5054946;28;20017;-70
2022/10/10 06:16:06;;;;;;;17.13;5.78;;;5.70;99.90;;;;;;5054179;28;20025;-70
2022/10/10 06:18:31;;;;;;;13.80;4.93;;;5.70;99.90;;;;;;5053110;28;20025;-70
2022/10/10 06:21:01;;;;;;;26.00;5.95;;;5.80;99.90;;;;;;5054510;28;20024;-70
2022/10/10 06:23:27;;;;;;;15.50;5.03;;;5.80;99.90;;;;;;5054623;28;20028;-70
2022/10/10 06:25:53;;;;;;;29.13;5.13;;;5.90;99.90;;;;;;5054356;28;20160;-70
2022/10/10 06:28:19;;;;;;;16.05;5.72;;;5.80;99.90;;;;;;5054014;28;20509;-70
2022/10/10 06:30:47;;;;;;;13.63;5.03;;;5.90;99.90;;;;;;5054543;28;20132;-70
2022/10/10 06:33:14;;;;;;;16.10;5.35;;;5.90;99.90;;;;;;5054393;28;20025;-70
2022/10/10 06:35:41;;;;;;;17.10;5.65;;;5.90;99.90;;;;;;5054617;28;20035;-70
2022/10/10 06:38:07;;;;;;;16.75;4.93;;;6.00;99.90;;;;;;5054496;28;20048;-70
2022/10/10 06:40:33;;;;;;;11.88;4.63;;;6.10;99.90;;;;;;5054048;28;20473;-70
2022/10/10 06:42:58;;;;;;;24.52;5.75;;;6.10;99.90;;;;;;5054008;28;20028;-70
2022/10/10 06:45:24;;;;;;;16.75;5.93;;;6.10;99.90;;;;;;5054156;28;20033;-70
2022/10/10 06:47:50;;;;;;;13.27;5.90;;;6.20;99.90;;;;;;5054160;28;20024;-70
2022/10/10 06:50:15;;;;;;;22.15;5.93;;;6.20;99.90;;;;;;5053282;28;20025;-70
2022/10/10 06:52:41;;;;;;;18.80;5.07;;;6.20;99.90;;;;;;5054116;28;20104;-70
2022/10/10 06:55:07;;;;;;;13.98;5.20;;;6.30;99.90;;;;;;5054026;28;20465;-70
2022/10/10 06:57:32;;;;;;;24.75;6.20;;;6.40;99.90;;;;;;5054521;28;20104;-70
2022/10/10 06:59:58;;;;;;;24.02;5.85;;;6.40;99.90;;;;;;5053919;28;20425;-70
2022/10/10 07:02:23;;;;;;;20.58;6.65;;;6.50;99.90;;;;;;5054051;28;20468;-70
2022/10/10 07:04:49;;;;;;;14.02;5.35;;;6.60;99.90;;;;;;5053416;28;20431;-70
2022/10/10 07:07:15;;;;;;;14.90;5.72;;;6.80;99.90;;;;;;5054078;28;20036;-70
2022/10/10 07:09:41;;;;;;;12.75;6.00;;;6.90;99.90;;;;;;5053881;28;20393;-70
2022/10/10 07:12:07;;;;;;;11.65;6.03;;;7.00;99.90;;;;;;5053209;28;20055;-70
2022/10/10 07:14:32;;;;;;;14.38;6.05;;;7.10;99.90;;;;;;5053756;28;20024;-70
2022/10/10 07:16:58;;;;;;;29.13;5.78;;;7.20;99.90;;;;;;5053562;28;20028;-70
2022/10/10 07:19:23;;;;;;;17.17;5.53;;;7.30;99.90;;;;;;5054116;28;20032;-70
2022/10/10 07:21:49;;;;;;;19.35;5.63;;;7.50;99.90;;;;;;5053555;28;20580;-70
2022/10/10 07:24:15;;;;;;;11.60;5.38;;;7.60;99.90;;;;;;5053329;28;20099;-70
2022/10/10 07:26:41;;;;;;;16.50;5.68;;;7.80;99.90;;;;;;5053310;28;20111;-70
2022/10/10 07:29:07;;;;;;;13.77;5.10;;;8.00;99.90;;;;;;5053516;28;20075;-70
2022/10/10 07:31:32;;;;;;;10.75;5.63;;;8.10;99.90;;;;;;5053433;28;20021;-70
2022/10/10 07:33:58;;;;;;;10.95;4.75;;;8.30;99.90;;;;;;5053509;28;20139;-70
2022/10/10 07:36:24;;;;;;;20.63;5.18;;;8.40;99.90;;;;;;5052306;28;20037;-70
2022/10/10 07:38:51;;;;;;;15.35;4.38;;;8.70;99.90;;;;;;5053699;28;20108;-70
2022/10/10 07:41:18;;;;;;;13.90;3.95;;;8.80;99.90;;;;;;5053337;28;20074;-70
2022/10/10 07:43:44;;;;;;;16.58;3.90;;;9.00;99.90;;;;;;5053437;28;20032;-70
2022/10/10 07:46:18;;;;;;;10.85;4.88;;;9.20;99.90;;;;;;5053872;28;20029;-71
2022/10/10 07:48:44;;;;;;;12.32;3.83;;;9.30;99.90;;;;;;5053532;28;20044;-70
2022/10/10 07:51:10;;;;;;;6.15;3.33;;;9.50;99.90;;;;;;5054054;28;20071;-71
2022/10/10 07:53:36;;;;;;;16.65;4.43;;;9.70;99.90;;;;;;5053406;28;20021;-70
2022/10/10 07:56:06;;;;;;;8.80;3.22;;;9.80;99.90;;;;;;5053103;28;20029;-70
2022/10/10 07:58:33;;;;;;;11.10;3.65;;;10.00;99.90;;;;;;5053258;28;20504;-70
2022/10/10 08:01:08;;;;;;;13.82;3.78;;;10.10;99.90;;;;;;5053406;28;20112;-70
2022/10/10 08:03:33;;;;;;;9.25;3.30;;;10.30;99.90;;;;;;5053574;28;20109;-70
2022/10/10 08:06:03;;;;;;;12.65;3.17;;;10.40;99.90;;;;;;5053390;28;20033;-70
2022/10/10 08:08:28;;;;;;;8.23;3.33;;;10.60;99.90;;;;;;5053094;28;20029;-71
2022/10/10 08:10:54;;;;;;;9.02;3.40;;;10.80;99.90;;;;;;5052607;28;20147;-70
2022/10/10 08:13:19;;;;;;;8.90;3.70;;;10.90;99.90;;;;;;5053096;28;20074;-70
2022/10/10 08:15:50;;;;;;;12.90;4.63;;;10.90;99.90;;;;;;5053696;28;20033;-71
2022/10/10 08:18:15;;;;;;;14.68;3.70;;;11.10;99.90;;;;;;5053771;28;20035;-70
2022/10/10 08:20:41;;;;;;;10.80;3.67;;;11.10;99.90;;;;;;5053027;28;20108;-70
2022/10/10 08:23:06;;;;;;;15.05;3.88;;;11.30;99.90;;;;;;5052606;28;20036;-70
2022/10/10 08:25:32;;;;;;;14.60;3.15;;;11.50;99.90;;;;;;5052933;28;20025;-70
2022/10/10 08:27:57;;;;;;;11.00;3.47;;;11.50;99.90;;;;;;5053497;28;20503;-71
2022/10/10 08:30:23;;;;;;;11.57;2.88;;;11.60;99.90;;;;;;5052964;28;20021;-71
2022/10/10 08:32:49;;;;;;;8.10;3.65;;;11.80;99.90;;;;;;5053225;28;20096;-71
2022/10/10 08:35:14;;;;;;;12.60;3.47;;;11.80;99.90;;;;;;5051101;28;20369;-71
2022/10/10 08:37:40;;;;;;;13.80;3.38;;;12.00;99.90;;;;;;5053287;28;20091;-71
2022/10/10 08:40:06;;;;;;;13.25;3.55;;;12.20;99.90;;;;;;5052725;28;20535;-71
2022/10/10 08:42:39;;;;;;;10.27;3.58;;;12.30;99.90;;;;;;5052822;28;20071;-71
2022/10/10 08:45:12;;;;;;;5.10;2.80;;;12.40;99.90;;;;;;5052999;28;20025;-71
2022/10/10 08:47:45;;;;;;;6.78;3.38;;;12.60;99.90;;;;;;5055257;28;20486;-71
2022/10/10 08:50:20;;;;;;;11.73;4.07;;;12.70;99.90;;;;;;5056489;28;20052;-71
2022/10/10 08:52:52;;;;;;;14.85;3.75;;;12.90;99.90;;;;;;5055097;28;20140;-71
2022/10/10 08:55:32;;;;;;;8.27;2.60;;;13.10;99.90;;;;;;5056902;28;20453;-71
2022/10/10 08:58:17;;;;;;;6.38;2.85;;;13.20;99.90;;;;;;5056026;28;20069;-71
2022/10/10 09:00:49;;;;;;;12.18;3.15;;;13.20;99.90;;;;;;5055161;28;20027;-71
2022/10/10 09:03:46;;;;;;;14.82;3.22;;;13.30;99.90;;;;;;5056204;28;20037;-70
2022/10/10 09:06:16;;;;;;;7.00;3.28;;;13.30;99.90;;;;;;5056318;28;20052;-70
2022/10/10 09:09:00;;;;;;;6.10;3.00;;;13.20;99.90;;;;;;5055560;28;20071;-71
2022/10/10 09:11:40;;;;;;;;;;;13.50;99.90;;;;;;5056461;28;20025;-71
2022/10/10 09:14:43;;;;;;;6.20;3.45;;;13.50;99.90;;;;;;5056188;28;19905;-71
2022/10/10 09:17:39;;;;;;;9.57;3.72;;;13.70;99.90;;;;;;5056184;28;20485;-71
2022/10/10 09:20:32;;;;;;;9.07;3.35;;;13.60;99.90;;;;;;5055245;28;20507;-71
2022/10/10 09:23:43;;;;;;;10.93;3.38;;;13.70;99.90;;;;;;5055771;28;20074;-71
2022/10/10 09:26:11;;;;;;;10.60;3.15;;;13.40;99.90;;;;;;4975518;28;20101;-71
2022/10/10 09:28:59;;;;;;;8.07;3.53;;;13.20;99.90;;;;;;4974335;28;20106;-71
2022/10/10 09:31:32;;;;;;;12.23;3.50;;;13.30;99.90;;;;;;5030135;28;20500;-71
2022/10/10 09:34:14;;;;;;;7.80;3.30;;;13.40;99.90;;;;;;5055616;28;20025;-71
2022/10/10 09:36:40;;;;;;;8.27;3.00;;;13.40;99.90;;;;;;5055474;28;20535;-71
2022/10/10 09:39:24;;;;;;;5.40;3.60;;;13.50;99.90;;;;;;5055032;28;20033;-71
2022/10/10 09:42:00;;;;;;;11.93;3.85;;;13.60;99.90;;;;;;5055535;28;20480;-71
2022/10/10 09:44:27;;;;;;;7.35;3.50;;;13.70;99.90;;;;;;5055621;28;20044;-71
2022/10/10 09:46:53;;;;;;;8.55;3.72;;;14.00;99.90;;;;;;5055383;28;20036;-71
2022/10/10 09:49:19;;;;;;;12.40;3.72;;;14.00;99.90;;;;;;5055252;28;20027;-71
2022/10/10 09:51:47;;;;;;;11.02;3.92;;;13.90;99.90;;;;;;5055616;28;20033;-71
2022/10/10 09:54:14;;;;;;;7.65;4.18;;;14.10;99.90;;;;;;5054734;28;20053;-71
2022/10/10 09:56:52;;;;;;;5.32;2.67;;;14.30;99.90;;;;;;5055130;28;20485;-71
2022/10/10 09:59:47;;;;;;;9.48;3.67;;;14.80;99.90;;;;;;5054649;28;20098;-71
2022/10/10 10:02:23;;;;;;;17.25;4.00;;;14.80;99.90;;;;;;5038182;28;20523;-72
2022/10/10 10:04:51;;;;;;;8.98;3.40;;;14.90;99.90;;;;;;5054508;28;20021;-71
2022/10/10 10:07:30;;;;;;;13.27;3.60;;;14.90;99.90;;;;;;5054879;28;20489;-71
2022/10/10 10:10:15;;;;;;;12.68;4.32;;;14.60;99.90;;;;;;5055172;28;20025;-71
2022/10/10 10:12:42;;;;;;;7.47;3.30;;;14.40;99.90;;;;;;5055403;28;20100;-71
2022/10/10 10:15:22;;;;;;;7.72;3.35;;;14.40;99.90;;;;;;5055353;28;20051;-71
2022/10/10 10:18:12;;;;;;;8.93;3.85;;;14.60;99.90;;;;;;5054584;28;20024;-71
2022/10/10 10:20:40;;;;;;;8.02;3.30;;;14.40;99.90;;;;;;5054629;28;20020;-71
2022/10/10 10:23:34;;;;;;;9.75;3.47;;;14.60;99.90;;;;;;5054952;28;20107;-71
2022/10/10 10:26:05;;;;;;;8.90;4.20;;;14.80;99.90;;;;;;5054670;28;20025;-71
2022/10/10 10:28:31;;;;;;;9.40;3.78;;;14.80;99.90;;;;;;5054169;28;20043;-71
2022/10/10 10:30:57;;;;;;;10.18;4.13;;;14.50;99.90;;;;;;5040230;28;20473;-71
2022/10/10 10:33:48;;;;;;;10.05;3.92;;;14.40;99.90;;;;;;5054419;28;20420;-71
2022/10/10 10:36:27;;;;;;;23.63;3.63;;;14.30;99.90;;;;;;5054973;28;20044;-71
2022/10/10 10:39:12;;;;;;;13.45;4.35;;;14.20;99.90;;;;;;5053845;28;20381;-71
2022/10/10 10:42:22;;;;;;;8.13;4.10;;;14.50;99.90;;;;;;5054218;28;20017;-71
2022/10/10 10:45:19;;;;;;;10.10;4.45;;;14.50;99.90;;;;;;5054156;28;20500;-71
2022/10/10 10:47:55;;;;;;;7.85;4.35;;;14.50;99.90;;;;;;5054621;28;20029;-71
2022/10/10 10:50:46;;;;;;;10.18;4.30;;;14.50;99.90;;;;;;5053394;28;20116;-71
2022/10/10 10:53:34;;;;;;;18.33;4.40;;;14.70;99.90;;;;;;5054027;28;20037;-71
2022/10/10 10:56:22;;;;;;;9.80;3.78;;;15.00;99.90;;;;;;5054227;28;20035;-71
2022/10/10 10:58:57;;;;;;;10.80;4.35;;;15.20;99.90;;;;;;5054236;28;20025;-71
2022/10/10 11:01:35;;;;;;;13.38;5.15;;;15.30;99.90;;;;;;5053921;28;20485;-71
2022/10/10 11:04:03;;;;;;;9.98;4.25;;;15.10;99.90;;;;;;5053767;28;20029;-71
2022/10/10 11:06:35;;;;;;;15.63;4.53;;;15.10;99.90;;;;;;5053745;28;20039;-71
2022/10/10 11:09:07;;;;;;;13.00;4.93;;;15.10;99.90;;;;;;5053642;28;20025;-71
2022/10/10 11:11:39;;;;;;;18.98;5.03;;;15.20;99.90;;;;;;5052673;28;20020;-70
2022/10/10 11:14:28;;;;;;;11.40;5.30;;;15.30;99.90;;;;;;5053726;28;20485;-70
2022/10/10 11:17:25;;;;;;;10.50;4.25;;;15.40;99.90;;;;;;5053965;28;20032;-70
2022/10/10 11:20:19;;;;;;;21.75;5.10;;;15.40;99.90;;;;;;5042896;28;20090;-70
2022/10/10 11:22:51;;;;;;;;;;;15.50;99.90;;;;;;5054613;28;20024;-70
2022/10/10 11:25:58;;;;;;;13.30;4.70;;;15.70;99.90;;;;;;5053206;28;20027;-71
2022/10/10 11:28:29;;;;;;;11.63;4.38;;;15.80;99.90;;;;;;5043015;28;20091;-71
2022/10/10 11:31:04;;;;;;;13.90;5.00;;;15.90;99.90;;;;;;5053426;28;20064;-71
2022/10/10 11:33:34;;;;;;;13.50;4.75;;;15.80;99.90;;;;;;5053769;28;20025;-70
2022/10/10 11:36:14;;;;;;;15.60;4.90;;;15.70;99.90;;;;;;5053592;28;20016;-71
2022/10/10 11:38:56;;;;;;;14.35;5.45;;;15.70;99.90;;;;;;5052954;28;20025;-70
2022/10/10 11:41:34;;;;;;;11.90;4.28;;;15.80;99.90;;;;;;5053369;28;20025;-70
2022/10/10 11:44:18;;;;;;;13.68;5.07;;;15.90;99.90;;;;;;5053624;28;20520;-70
2022/10/10 11:47:15;;;;;;;13.10;5.07;;;15.90;99.90;;;;;;5053490;28;20504;-70
2022/10/10 11:50:09;;;;;;;21.88;5.03;;;15.90;99.90;;;;;;5053343;28;20028;-70
2022/10/10 11:52:59;;;;;;;9.43;4.80;;;16.00;99.90;;;;;;5023612;28;20489;-71
2022/10/10 11:56:00;;;;;;;12.95;5.07;;;15.70;99.90;;;;;;5053491;28;20044;-71
2022/10/10 11:58:36;;;;;;;19.20;5.47;;;15.50;99.90;;;;;;5009160;28;20116;-71
2022/10/10 12:01:37;;;;;;;17.08;5.95;;;15.30;99.90;;;;;;5052782;28;20028;-71
2022/10/10 12:04:03;;;;;;;16.05;6.95;;;15.50;99.90;;;;;;5053223;28;20377;-71
2022/10/10 12:06:43;;;;;;;15.60;6.55;;;15.40;99.90;;;;;;5053111;28;20036;-71
2022/10/10 12:09:25;;;;;;;14.88;6.07;;;15.20;99.90;;;;;;5053159;28;20518;-71
2022/10/10 12:12:09;;;;;;;13.13;6.32;;;15.30;99.90;;;;;;5053347;28;20013;-71
2022/10/10 12:14:38;;;;;;;15.57;6.07;;;15.50;99.90;;;;;;5052792;28;20036;-71
2022/10/10 12:17:04;;;;;;;11.32;5.47;;;15.60;99.90;;;;;;5053297;28;20051;-71
2022/10/10 12:19:30;;;;;;;13.18;5.78;;;15.60;99.90;;;;;;5051567;28;20107;-70
2022/10/10 12:22:02;;;;;;;16.67;6.38;;;15.80;99.90;;;;;;5054896;28;20102;-70
2022/10/10 12:24:33;;;;;;;22.85;7.05;;;15.60;99.90;;;;;;5056824;28;20025;-70
2022/10/10 12:26:58;;;;;;;17.15;6.40;;;15.60;99.90;;;;;;5057024;28;20025;-70
2022/10/10 12:29:45;;;;;;;18.55;6.68;;;15.30;99.90;;;;;;5056254;28;20029;-70
2022/10/10 12:32:13;;;;;;;10.98;6.47;;;15.40;99.90;;;;;;5056613;28;20492;-70
2022/10/10 12:34:41;;;;;;;14.95;6.18;;;15.40;99.90;;;;;;5056907;28;20029;-70
2022/10/10 12:37:25;;;;;;;13.52;6.75;;;15.30;99.90;;;;;;5056781;28;20025;-70
2022/10/10 12:40:04;;;;;;;22.20;7.53;;;15.20;99.90;;;;;;5057515;28;20103;-70
2022/10/10 12:42:46;;;;;;;20.13;6.72;;;15.20;99.90;;;;;;5056876;28;20542;-71
2022/10/10 12:45:34;;;;;;;12.75;6.78;;;15.20;99.90;;;;;;5056745;28;20507;-71
2022/10/10 12:48:16;;;;;;;17.30;7.00;;;15.30;99.90;;;;;;5045832;28;20111;-71
2022/10/10 12:50:52;;;;;;;13.02;6.93;;;15.30;99.90;;;;;;5056372;28;20071;-70
2022/10/10 12:53:18;;;;;;;18.00;6.60;;;15.40;99.90;;;;;;5056623;28;20024;-71
2022/10/10 12:55:45;;;;;;;13.40;6.78;;;15.30;99.90;;;;;;5056021;28;20025;-71
2022/10/10 12:58:38;;;;;;;17.48;7.22;;;15.40;99.90;;;;;;5056327;28;20024;-71
2022/10/10 13:01:24;;;;;;;17.55;6.97;;;15.40;99.90;;;;;;5052795;28;20102;-71
2022/10/10 13:03:53;;;;;;;19.42;7.65;;;15.40;99.90;;;;;;5056120;28;20036;-71
2022/10/10 13:06:39;;;;;;;23.80;7.20;;;15.30;99.90;;;;;;5056307;28;20100;-71
2022/10/10 13:09:14;;;;;;;26.02;6.88;;;15.00;99.90;;;;;;5055796;28;20036;-71